Time;durP1;ratioP1;P1;durP2;ratioP2;P2;SDS_P1;SDS_P2;PMS_P1;PMS_P2;Temp;Humidity;BMP_temperature;BMP_pressure;BME280_temperature;BME280_humidity;BME280_pressure;Samples;Min_cycle;Max_cycle;Signal;HPM_P1;HPM_P2
2023/06/20 00:00:39;;;;;;;;;;;;;;;20.09;67.98;92818.50;2058422;69;20145;-77
2023/06/20 00:03:05;;;;;;;;;;;;;;;19.85;69.44;92807.16;2054257;70;20057;-76
2023/06/20 00:05:32;;;;;;;;;;;;;;;19.98;68.88;92799.66;2055745;69;20059;-78
2023/06/20 00:07:57;;;;;;;;;;;;;;;19.99;68.42;92804.69;2052077;70;20206;-77
2023/06/20 00:10:25;;;;;;;;;;;;;;;19.99;67.92;92798.97;2055629;70;20502;-77
2023/06/20 00:12:51;;;;;;;;;;;;;;;20.01;66.34;92793.28;2055423;69;20054;-77
2023/06/20 00:15:16;;;;;;;;;;;;;;;20.10;66.15;92794.25;2055136;70;20077;-76
2023/06/20 00:17:42;;;;;;;;;;;;;;;20.04;66.95;92786.25;2051106;70;20062;-77
2023/06/20 00:20:08;;;;;;;;;;;;;;;19.97;67.79;92792.47;2051088;70;20061;-76
2023/06/20 00:22:38;;;;;;;;;;;;;;;19.85;67.34;92800.72;2057681;69;20053;-77
2023/06/20 00:25:06;;;;;;;;;;;;;;;19.72;68.39;92803.22;2058758;69;20074;-77
2023/06/20 00:27:32;;;;;;;;;;;;;;;19.80;67.69;92797.00;2058587;69;20104;-77
2023/06/20 00:29:58;;;;;;;;;;;;;;;19.76;68.18;92814.03;2055580;69;20061;-77
2023/06/20 00:32:24;;;;;;;;;;;;;;;19.74;67.48;92820.41;2056072;69;20050;-76
2023/06/20 00:34:51;;;;;;;;;;;;;;;19.71;67.83;92813.19;2048603;70;20054;-75
2023/06/20 00:37:18;;;;;;;;;;;;;;;19.59;68.21;92806.38;2055282;70;20059;-74
2023/06/20 00:39:46;;;;;;;;;;;;;;;19.65;67.71;92810.13;2055255;69;20081;-79
2023/06/20 00:42:16;;;;;;;;;;;;;;;19.64;68.51;92805.81;2055389;69;20042;-79
2023/06/20 00:44:42;;;;;;;;;;;;;;;19.49;69.11;92806.78;2049490;70;20125;-77
2023/06/20 00:47:08;;;;;;;;;;;;;;;19.25;70.20;92815.38;2055769;69;20053;-77
2023/06/20 00:49:33;;;;;;;;;;;;;;;19.40;68.89;92822.94;2055201;70;20539;-77
2023/06/20 00:52:01;;;;;;;;;;;;;;;19.42;69.16;92819.41;2050866;69;20050;-76
2023/06/20 00:54:26;;;;;;;;;;;;;;;19.36;68.92;92814.25;2055234;69;20093;-77
2023/06/20 00:56:55;;;;;;;;;;;;;;;19.44;67.36;92825.94;2055083;69;20525;-77
2023/06/20 00:59:23;;;;;;;;;;;;;;;19.39;67.78;92832.91;2059132;69;20050;-78
2023/06/20 01:01:48;;;;;;;;;;;;;;;19.29;68.15;92833.34;2051199;70;20046;-78
2023/06/20 01:04:14;;;;;;;;;;;;;;;19.26;69.21;92831.09;2055391;70;20065;-78
2023/06/20 01:06:47;;;;;;;;;;;;;;;19.26;68.79;92837.53;2055787;70;20058;-78
2023/06/20 01:09:16;;;;;;;;;;;;;;;19.28;68.20;92837.56;2055637;70;20473;-78
2023/06/20 01:11:46;;;;;;;;;;;;;;;19.30;67.90;92840.50;2051900;70;20548;-77
2023/06/20 01:14:16;;;;;;;;;;;;;;;19.33;67.07;92841.28;2055352;70;20153;-79
2023/06/20 01:16:42;;;;;;;;;;;;;;;18.94;68.84;92837.22;2051857;70;20466;-78
2023/06/20 01:19:28;;;;;;;;;;;;;;;19.05;68.48;92836.16;2055730;69;20086;-76
2023/06/20 01:21:55;;;;;;;;;;;;;;;19.08;68.56;92828.41;2053045;69;20046;-79
2023/06/20 01:24:29;;;;;;;;;;;;;;;19.03;69.34;92827.53;2055147;69;20061;-78
2023/06/20 01:27:01;;;;;;;;;;;;;;;19.13;68.91;92832.09;2058555;69;20486;-77
2023/06/20 01:29:26;;;;;;;;;;;;;;;19.19;68.91;92829.44;2052329;69;20596;-77
2023/06/20 01:31:58;;;;;;;;;;;;;;;19.22;67.92;92828.09;2054957;69;20054;-77
2023/06/20 01:34:27;;;;;;;;;;;;;;;19.20;65.74;92828.06;2055224;69;20062;-76
2023/06/20 01:36:54;;;;;;;;;;;;;;;19.28;66.39;92822.56;2058712;69;20050;-76
2023/06/20 01:39:36;;;;;;;;;;;;;;;19.05;66.32;92818.31;2058495;69;20145;-77
2023/06/20 01:42:03;;;;;;;;;;;;;;;19.19;67.26;92809.44;2055805;69;20804;-76
2023/06/20 01:44:29;;;;;;;;;;;;;;;19.28;66.75;92805.44;2058496;69;20097;-75
2023/06/20 01:46:56;;;;;;;;;;;;;;;19.30;67.19;92805.53;2054414;69;20097;-75
2023/06/20 01:49:22;;;;;;;;;;;;;;;19.44;65.42;92802.38;2057625;69;20643;-75
2023/06/20 01:51:52;;;;;;;;;;;;;;;19.46;65.26;92810.97;2051435;70;20448;-76
2023/06/20 01:54:21;;;;;;;;;;;;;;;19.63;65.34;92803.66;2055633;70;20053;-75
2023/06/20 01:56:49;;;;;;;;;;;;;;;19.46;66.73;92808.13;2051997;70;20455;-77
2023/06/20 01:59:14;;;;;;;;;;;;;;;18.80;68.90;92816.81;2055276;69;20585;-76
2023/06/20 02:01:42;;;;;;;;;;;;;;;19.16;67.09;92825.06;2051208;70;20050;-77
2023/06/20 02:04:08;;;;;;;;;;;;;;;19.30;66.69;92822.66;2051152;70;20050;-77
2023/06/20 02:06:35;;;;;;;;;;;;;;;19.36;65.95;92807.81;2051872;70;20058;-77
2023/06/20 02:09:02;;;;;;;;;;;;;;;19.30;66.54;92803.41;2052114;70;20054;-76
2023/06/20 02:11:29;;;;;;;;;;;;;;;19.25;66.68;92792.53;2054965;69;20124;-76
2023/06/20 02:13:57;;;;;;;;;;;;;;;19.34;67.05;92799.94;2055142;69;20248;-76
2023/06/20 02:16:24;;;;;;;;;;;;;;;19.10;67.82;92811.31;2048832;70;20046;-76
2023/06/20 02:18:50;;;;;;;;;;;;;;;19.04;67.57;92819.72;2051877;70;20129;-75
2023/06/20 02:21:22;;;;;;;;;;;;;;;19.14;67.65;92822.13;2057333;69;20475;-75
2023/06/20 02:23:54;;;;;;;;;;;;;;;19.19;67.91;92823.72;2058818;69;20105;-76
2023/06/20 02:26:21;;;;;;;;;;;;;;;19.10;68.69;92827.72;2058652;69;20061;-75
2023/06/20 02:28:48;;;;;;;;;;;;;;;19.24;67.88;92816.75;2059095;69;20074;-73
2023/06/20 02:31:15;;;;;;;;;;;;;;;19.18;67.65;92817.28;2058698;69;20069;-76
2023/06/20 02:33:41;;;;;;;;;;;;;;;19.26;67.43;92811.09;2059343;69;20038;-77
2023/06/20 02:36:07;;;;;;;;;;;;;;;19.19;67.96;92809.44;2058873;69;20057;-77
2023/06/20 02:38:33;;;;;;;;;;;;;;;19.14;68.54;92811.44;2055324;69;20117;-77
2023/06/20 02:40:59;;;;;;;;;;;;;;;18.98;68.41;92808.84;2058322;69;20054;-77
2023/06/20 02:43:24;;;;;;;;;;;;;;;19.08;69.16;92808.41;2058489;69;20082;-77
2023/06/20 02:46:11;;;;;;;;;;;;;;;19.07;69.50;92797.69;2055267;69;20226;-77
2023/06/20 02:48:37;;;;;;;;;;;;;;;18.93;70.04;92784.44;2051804;70;20058;-77
2023/06/20 02:51:09;;;;;;;;;;;;;;;18.93;69.26;92786.56;2055631;70;20057;-76
2023/06/20 02:54:01;;;;;;;;;;;;;;;18.90;68.85;92787.88;2051944;70;20082;-77
2023/06/20 02:56:29;;;;;;;;;;;;;;;18.90;69.08;92796.44;2055484;69;20109;-76
2023/06/20 02:58:56;;;;;;;;;;;;;;;18.94;68.61;92800.16;2052016;70;20056;-76
2023/06/20 03:01:24;;;;;;;;;;;;;;;19.05;67.85;92801.91;2052016;70;20099;-77
2023/06/20 03:03:53;;;;;;;;;;;;;;;18.51;71.54;92807.31;2052063;70;20046;-77
2023/06/20 03:06:26;;;;;;;;;;;;;;;18.22;71.40;92821.97;2055077;69;20078;-76
2023/06/20 03:08:55;;;;;;;;;;;;;;;18.64;69.48;92819.81;2051997;70;20129;-75
2023/06/20 03:11:22;;;;;;;;;;;;;;;18.74;69.35;92825.91;2055433;70;20141;-77
2023/06/20 03:13:48;;;;;;;;;;;;;;;18.71;69.58;92827.22;2055412;70;20081;-77
2023/06/20 03:16:14;;;;;;;;;;;;;;;18.75;69.10;92826.63;2052885;69;20066;-76
2023/06/20 03:18:39;;;;;;;;;;;;;;;18.73;70.08;92832.25;2057939;69;20101;-76
2023/06/20 03:21:06;;;;;;;;;;;;;;;18.71;70.12;92837.91;2058311;69;20658;-77
2023/06/20 03:23:32;;;;;;;;;;;;;;;18.78;69.49;92831.00;2057869;69;20177;-76
2023/06/20 03:25:59;;;;;;;;;;;;;;;18.71;69.75;92841.47;2055099;69;20064;-75
2023/06/20 03:28:25;;;;;;;;;;;;;;;18.70;69.18;92836.44;2055377;69;20141;-76
2023/06/20 03:30:52;;;;;;;;;;;;;;;18.62;69.44;92839.00;2055946;69;20136;-76
2023/06/20 03:33:19;;;;;;;;;;;;;;;18.53;69.92;92833.03;2053301;70;20149;-76
2023/06/20 03:35:45;;;;;;;;;;;;;;;18.64;68.95;92825.53;2051987;70;20145;-76
2023/06/20 03:38:15;;;;;;;;;;;;;;;18.58;69.13;92833.88;2052704;70;20047;-76
2023/06/20 03:40:41;;;;;;;;;;;;;;;18.76;67.99;92840.22;2052337;70;20142;-76
2023/06/20 03:43:09;;;;;;;;;;;;;;;18.65;68.98;92829.88;2055903;69;20070;-76
2023/06/20 03:45:35;;;;;;;;;;;;;;;18.71;68.44;92835.06;2049648;70;20051;-77
2023/06/20 03:48:02;;;;;;;;;;;;;;;18.75;68.30;92838.03;2052236;70;20061;-76
2023/06/20 03:50:28;;;;;;;;;;;;;;;18.74;68.08;92845.88;2055937;70;20601;-77
2023/06/20 03:52:55;;;;;;;;;;;;;;;18.67;68.66;92852.72;2050515;70;20074;-75
2023/06/20 03:55:20;;;;;;;;;;;;;;;18.61;69.10;92848.97;2051190;69;20438;-74
2023/06/20 03:57:47;;;;;;;;;;;;;;;18.59;69.21;92863.84;2054292;70;20141;-76
2023/06/20 04:00:13;;;;;;;;;;;;;;;18.53;69.81;92855.84;2051844;70;20140;-77
2023/06/20 04:02:42;;;;;;;;;;;;;;;18.83;67.52;92851.81;2052800;69;20062;-75
2023/06/20 04:05:08;;;;;;;;;;;;;;;18.75;69.01;92860.84;2059466;69;20050;-77
2023/06/20 04:07:36;;;;;;;;;;;;;;;18.45;70.34;92834.88;2055177;69;20557;-76
2023/06/20 04:10:02;;;;;;;;;;;;;;;18.73;69.77;92858.66;2058208;69;20062;-76
2023/06/20 04:12:30;;;;;;;;;;;;;;;18.84;69.97;92856.16;2052510;69;20042;-76
2023/06/20 04:14:55;;;;;;;;;;;;;;;18.93;69.97;92866.44;2055915;70;20097;-76
2023/06/20 04:17:24;;;;;;;;;;;;;;;18.93;69.80;92857.88;2052504;70;20058;-76
2023/06/20 04:19:50;;;;;;;;;;;;;;;18.99;69.17;92869.47;2051593;70;20153;-76
2023/06/20 04:22:19;;;;;;;;;;;;;;;18.69;68.72;92874.91;2055034;69;20185;-76
2023/06/20 04:24:46;;;;;;;;;;;;;;;18.97;69.00;92877.97;2055541;70;20047;-75
2023/06/20 04:27:12;;;;;;;;;;;;;;;19.12;68.27;92879.16;2056957;69;20138;-75
2023/06/20 04:29:37;;;;;;;;;;;;;;;19.28;68.02;92868.25;2057587;69;20193;-75
2023/06/20 04:32:03;;;;;;;;;;;;;;;18.93;67.88;92870.00;2058579;69;20050;-75
2023/06/20 04:34:30;;;;;;;;;;;;;;;19.19;65.55;92870.09;2055519;69;20635;-77
2023/06/20 04:36:55;;;;;;;;;;;;;;;19.30;66.13;92869.03;2052189;69;20145;-77
2023/06/20 04:39:22;;;;;;;;;;;;;;;19.51;66.13;92866.81;2054681;69;20046;-78
2023/06/20 04:41:48;;;;;;;;;;;;;;;19.55;65.43;92856.22;2052986;70;20074;-78
2023/06/20 04:44:13;;;;;;;;;;;;;;;19.42;65.05;92865.81;2051970;70;20485;-77
2023/06/20 04:46:39;;;;;;;;;;;;;;;19.53;65.63;92872.59;2055503;70;20039;-78
2023/06/20 04:49:05;;;;;;;;;;;;;;;19.62;66.82;92870.72;2055256;70;20125;-78
2023/06/20 04:51:33;;;;;;;;;;;;;;;19.74;66.81;92877.53;2055000;69;20065;-75
2023/06/20 04:53:59;;;;;;;;;;;;;;;19.71;66.86;92881.72;2054772;69;20062;-76
2023/06/20 04:56:25;;;;;;;;;;;;;;;19.76;67.05;92877.59;2054991;69;20417;-76
2023/06/20 04:58:51;;;;;;;;;;;;;;;19.57;65.71;92881.28;2054952;69;20065;-77
2023/06/20 05:01:17;;;;;;;;;;;;;;;19.83;65.45;92872.06;2058649;69;20116;-77
2023/06/20 05:03:45;;;;;;;;;;;;;;;19.66;68.43;92879.44;2055091;69;20069;-76
2023/06/20 05:06:16;;;;;;;;;;;;;;;19.75;66.66;92881.84;2058706;69;20201;-77
2023/06/20 05:08:45;;;;;;;;;;;;;;;19.80;65.99;92882.69;2054916;69;20054;-78
2023/06/20 05:11:11;;;;;;;;;;;;;;;19.84;65.73;92887.78;2052239;69;20058;-76
2023/06/20 05:13:37;;;;;;;;;;;;;;;19.91;65.95;92878.72;2058797;69;20102;-77
2023/06/20 05:16:04;;;;;;;;;;;;;;;19.93;65.08;92878.81;2058318;69;20079;-78
2023/06/20 05:18:30;;;;;;;;;;;;;;;20.03;64.83;92881.94;2058878;69;20531;-77
2023/06/20 05:20:57;;;;;;;;;;;;;;;20.05;65.58;92882.00;2054353;69;20090;-75
2023/06/20 05:23:25;;;;;;;;;;;;;;;20.04;66.82;92882.69;2055204;70;20047;-76
2023/06/20 05:25:50;;;;;;;;;;;;;;;20.09;67.14;92887.09;2054633;70;20145;-77
2023/06/20 05:28:16;;;;;;;;;;;;;;;20.25;66.50;92887.56;2051172;70;20082;-77
2023/06/20 05:30:42;;;;;;;;;;;;;;;20.27;66.69;92899.03;2054968;70;20062;-77
2023/06/20 05:33:08;;;;;;;;;;;;;;;19.84;67.21;92893.50;2058254;69;20435;-77
2023/06/20 05:35:34;;;;;;;;;;;;;;;19.89;67.24;92892.97;2058287;69;20077;-76
2023/06/20 05:38:03;;;;;;;;;;;;;;;20.16;65.52;92899.41;2058457;69;20463;-77
2023/06/20 05:40:29;;;;;;;;;;;;;;;20.18;66.14;92908.06;2054911;69;20054;-78
2023/06/20 05:42:55;;;;;;;;;;;;;;;20.27;66.17;92906.91;2054121;69;20050;-76
2023/06/20 05:45:20;;;;;;;;;;;;;;;20.40;65.28;92902.97;2054575;70;20483;-77
2023/06/20 05:47:46;;;;;;;;;;;;;;;20.38;65.49;92908.63;2051399;69;20515;-76
2023/06/20 05:50:11;;;;;;;;;;;;;;;20.57;64.18;92909.88;2054641;69;20050;-77
2023/06/20 05:52:37;;;;;;;;;;;;;;;20.71;65.63;92909.53;2055361;69;20132;-76
2023/06/20 05:55:04;;;;;;;;;;;;;;;20.70;65.86;92920.25;2054888;69;20054;-76
2023/06/20 05:57:30;;;;;;;;;;;;;;;20.78;65.63;92903.31;2054652;70;20065;-75
2023/06/20 05:59:55;;;;;;;;;;;;;;;20.85;65.26;92912.03;2056294;69;20058;-76
2023/06/20 06:02:21;;;;;;;;;;;;;;;20.59;67.13;92900.66;2056039;69;20052;-77
2023/06/20 06:04:47;;;;;;;;;;;;;;;20.81;67.48;92909.81;2056393;69;20198;-76
2023/06/20 06:07:13;;;;;;;;;;;;;;;20.83;67.05;92909.13;2054830;69;20083;-79
2023/06/20 06:09:41;;;;;;;;;;;;;;;20.99;63.38;92918.88;2058373;69;20133;-77
2023/06/20 06:12:07;;;;;;;;;;;;;;;21.06;63.87;92911.16;2058467;69;20056;-77
2023/06/20 06:14:33;;;;;;;;;;;;;;;20.60;61.90;92910.69;2058058;69;20426;-76
2023/06/20 06:17:00;;;;;;;;;;;;;;;20.97;61.89;92904.50;2054306;69;20054;-75
2023/06/20 06:19:25;;;;;;;;;;;;;;;21.15;63.54;92901.38;2057692;69;20153;-76
2023/06/20 06:21:52;;;;;;;;;;;;;;;21.30;65.11;92908.91;2057249;69;20173;-76
2023/06/20 06:24:21;;;;;;;;;;;;;;;21.57;62.02;92903.81;2057210;69;20528;-76
2023/06/20 06:26:47;;;;;;;;;;;;;;;21.66;64.12;92901.88;2051352;70;20074;-76
2023/06/20 06:29:12;;;;;;;;;;;;;;;21.73;62.95;92907.06;2051428;70;20061;-76
2023/06/20 06:31:38;;;;;;;;;;;;;;;21.74;62.51;92911.38;2054773;70;20195;-78
2023/06/20 06:34:04;;;;;;;;;;;;;;;21.74;61.41;92904.91;2054718;69;20046;-76
2023/06/20 06:36:33;;;;;;;;;;;;;;;21.80;62.25;92908.63;2054482;69;20053;-77
2023/06/20 06:38:59;;;;;;;;;;;;;;;21.76;61.98;92920.03;2058482;69;20120;-75
2023/06/20 06:41:25;;;;;;;;;;;;;;;21.82;63.65;92925.16;2053236;69;20526;-75
2023/06/20 06:43:50;;;;;;;;;;;;;;;21.86;62.58;92922.41;2057069;69;20137;-77
2023/06/20 06:46:16;;;;;;;;;;;;;;;22.08;61.98;92922.88;2058643;69;20126;-77
2023/06/20 06:48:41;;;;;;;;;;;;;;;22.22;63.06;92928.22;2058332;69;20422;-76
2023/06/20 06:51:07;;;;;;;;;;;;;;;22.25;62.74;92929.69;2054769;69;20077;-76
2023/06/20 06:53:32;;;;;;;;;;;;;;;22.05;57.01;92924.25;2055129;70;20053;-75
2023/06/20 06:55:58;;;;;;;;;;;;;;;21.84;58.24;92913.75;2055132;70;20086;-75
2023/06/20 06:58:23;;;;;;;;;;;;;;;21.77;58.17;92912.88;2050569;70;20064;-77
2023/06/20 07:00:49;;;;;;;;;;;;;;;22.01;56.86;92906.97;2056188;69;20086;-76
2023/06/20 07:03:16;;;;;;;;;;;;;;;22.01;55.49;92906.97;2056894;69;20061;-75
2023/06/20 07:05:41;;;;;;;;;;;;;;;22.12;55.53;92898.59;2058692;69;20058;-76
2023/06/20 07:08:07;;;;;;;;;;;;;;;22.37;57.15;92894.81;2058276;69;20066;-79
2023/06/20 07:10:32;;;;;;;;;;;;;;;22.40;58.46;92890.56;2056876;69;20119;-78
2023/06/20 07:12:58;;;;;;;;;;;;;;;22.63;59.33;92888.13;2055709;70;20064;-78
2023/06/20 07:15:25;;;;;;;;;;;;;;;22.67;58.89;92880.31;2056937;70;20046;-79
2023/06/20 07:17:50;;;;;;;;;;;;;;;22.79;57.69;92880.56;2055026;70;20474;-77
2023/06/20 07:20:17;;;;;;;;;;;;;;;22.46;54.34;92884.25;2055688;69;20042;-75
2023/06/20 07:22:45;;;;;;;;;;;;;;;22.38;53.87;92864.72;2052279;70;20509;-76
2023/06/20 07:25:10;;;;;;;;;;;;;;;22.48;53.63;92876.38;2055237;69;20423;-76
2023/06/20 07:27:37;;;;;;;;;;;;;;;22.68;55.36;92866.69;2055006;70;20517;-77
2023/06/20 07:30:02;;;;;;;;;;;;;;;22.89;56.01;92877.16;2056405;69;20492;-76
2023/06/20 07:32:31;;;;;;;;;;;;;;;22.97;58.19;92870.84;2058789;69;20497;-76
2023/06/20 07:34:57;;;;;;;;;;;;;;;23.07;58.23;92865.28;2058497;69;20058;-76
2023/06/20 07:37:23;;;;;;;;;;;;;;;23.22;58.47;92861.22;2058861;69;20056;-77
2023/06/20 07:39:53;;;;;;;;;;;;;;;23.21;57.59;92865.50;2054411;70;20050;-77
2023/06/20 07:42:18;;;;;;;;;;;;;;;23.27;55.44;92859.13;2055077;69;20478;-77
2023/06/20 07:44:44;;;;;;;;;;;;;;;23.04;53.20;92864.50;2055535;69;20062;-77
2023/06/20 07:47:10;;;;;;;;;;;;;;;23.05;52.08;92860.25;2054582;69;20413;-77
2023/06/20 07:49:36;;;;;;;;;;;;;;;23.29;53.04;92862.78;2056790;69;20116;-77
2023/06/20 07:52:01;;;;;;;;;;;;;;;23.22;51.57;92857.63;2055456;69;20050;-77
2023/06/20 07:54:33;;;;;;;;;;;;;;;23.49;53.03;92856.63;2058798;69;20164;-77
2023/06/20 07:56:59;;;;;;;;;;;;;;;23.67;51.68;92852.59;2058521;69;20078;-78
2023/06/20 07:59:24;;;;;;;;;;;;;;;23.76;51.94;92851.28;2055407;69;20089;-77
2023/06/20 08:01:51;;;;;;;;;;;;;;;23.93;53.43;92837.88;2055591;70;20158;-78
2023/06/20 08:04:16;;;;;;;;;;;;;;;24.06;55.56;92837.31;2055124;70;20042;-78
2023/06/20 08:06:42;;;;;;;;;;;;;;;24.26;53.47;92839.72;2055660;70;20062;-78
2023/06/20 08:09:07;;;;;;;;;;;;;;;24.39;52.88;92843.50;2051619;70;20505;-78
2023/06/20 08:11:34;;;;;;;;;;;;;;;24.49;51.54;92843.59;2052053;70;20391;-78
2023/06/20 08:14:01;;;;;;;;;;;;;;;24.65;49.38;92822.91;2055398;70;20050;-79
2023/06/20 08:16:27;;;;;;;;;;;;;;;24.66;50.48;92818.59;2055437;70;20059;-79
2023/06/20 08:18:52;;;;;;;;;;;;;;;24.94;48.36;92820.31;2055555;70;20054;-79
2023/06/20 08:21:19;;;;;;;;;;;;;;;25.03;47.56;92819.66;2054988;70;20046;-79
2023/06/20 08:23:46;;;;;;;;;;;;;;;25.38;47.60;92808.44;2049204;70;20078;-78
2023/06/20 08:26:13;;;;;;;;;;;;;;;25.74;45.62;92802.19;2055142;70;20050;-79
2023/06/20 08:28:41;;;;;;;;;;;;;;;26.10;46.38;92804.56;2051466;70;20427;-79
2023/06/20 08:31:07;;;;;;;;;;;;;;;26.39;45.74;92807.56;2055250;70;20088;-78
2023/06/20 08:33:32;;;;;;;;;;;;;;;26.67;45.02;92797.56;2055294;70;20078;-78
2023/06/20 08:35:59;;;;;;;;;;;;;;;26.42;44.35;92796.75;2051628;70;20050;-78
2023/06/20 08:38:24;;;;;;;;;;;;;;;27.01;44.56;92794.00;2056857;69;20054;-79
2023/06/20 08:40:52;;;;;;;;;;;;;;;26.87;44.19;92797.59;2058841;69;20745;-79
2023/06/20 08:43:18;;;;;;;;;;;;;;;27.74;45.07;92791.13;2058704;69;20057;-80
2023/06/20 08:45:45;;;;;;;;;;;;;;;28.12;42.31;92798.25;2055658;69;20093;-81
2023/06/20 08:48:11;;;;;;;;;;;;;;;27.39;43.47;92783.91;2055266;69;20116;-80
2023/06/20 08:50:37;;;;;;;;;;;;;;;27.99;41.80;92788.88;2055595;69;20050;-80
2023/06/20 08:53:04;;;;;;;;;;;;;;;28.40;40.54;92788.03;2059052;69;20509;-80
2023/06/20 08:55:31;;;;;;;;;;;;;;;28.93;41.13;92784.84;2056653;69;20521;-80
2023/06/20 08:57:56;;;;;;;;;;;;;;;29.42;43.02;92790.31;2055676;70;20059;-79
2023/06/20 09:00:23;;;;;;;;;;;;;;;30.17;39.42;92785.97;2051947;70;20085;-80
2023/06/20 09:02:51;;;;;;;;;;;;;;;29.37;39.54;92783.81;2051947;70;20066;-80
2023/06/20 09:05:17;;;;;;;;;;;;;;;29.78;40.62;92792.16;2055700;70;20050;-80
2023/06/20 09:07:44;;;;;;;;;;;;;;;30.09;39.43;92780.94;2051982;70;20470;-80
2023/06/20 09:10:11;;;;;;;;;;;;;;;30.21;37.76;92785.94;2055761;70;20046;-79
2023/06/20 09:12:46;;;;;;;;;;;;;;;28.56;38.72;92780.00;2055533;70;20054;-80
2023/06/20 09:15:19;;;;;;;;;;;;;;;30.15;37.38;92774.38;2055903;69;20050;-80
2023/06/20 09:17:48;;;;;;;;;;;;;;;30.23;37.12;92772.09;2055424;69;20144;-79
2023/06/20 09:20:14;;;;;;;;;;;;;;;30.37;38.77;92765.38;2059001;69;20116;-80
2023/06/20 09:22:40;;;;;;;;;;;;;;;30.84;37.23;92774.25;2058899;69;20050;-80
2023/06/20 09:25:09;;;;;;;;;;;;;;;31.41;37.20;92769.03;2058657;69;20053;-81
2023/06/20 09:27:42;;;;;;;;;;;;;;;31.63;36.87;92775.19;2055301;69;20058;-79
2023/06/20 09:30:09;;;;;;;;;;;;;;;30.87;34.99;92769.81;2055025;69;20058;-79
2023/06/20 09:32:35;;;;;;;;;;;;;;;31.96;35.51;92768.81;2055799;70;20100;-79
2023/06/20 09:35:09;;;;;;;;;;;;;;;32.06;36.07;92765.00;2055707;70;20490;-79
2023/06/20 09:37:42;;;;;;;;;;;;;;;31.63;33.31;92757.03;2055404;70;20506;-79
2023/06/20 09:40:11;;;;;;;;;;;;;;;32.76;33.02;92755.56;2055217;69;20057;-78
2023/06/20 09:42:37;;;;;;;;;;;;;;;33.00;33.61;92746.31;2055264;69;20050;-79
2023/06/20 09:45:04;;;;;;;;;;;;;;;33.31;33.75;92743.41;2055226;70;20502;-80
2023/06/20 09:47:32;;;;;;;;;;;;;;;32.73;31.66;92740.34;2055446;70;20075;-80
2023/06/20 09:49:58;;;;;;;;;;;;;;;32.05;32.31;92749.00;2055457;69;20069;-79
2023/06/20 09:52:37;;;;;;;;;;;;;;;32.21;32.21;92733.38;2057440;69;20054;-79
2023/06/20 09:55:08;;;;;;;;;;;;;;;32.45;32.31;92735.84;2054692;69;20145;-79
2023/06/20 10:03:44;;;;;;;;;;;;;;;34.41;30.29;92719.38;2054933;69;20124;-83
2023/06/20 10:06:10;;;;;;;;;;;;;;;35.07;29.62;92727.66;2052835;69;20062;-83
2023/06/20 10:08:36;;;;;;;;;;;;;;;34.87;30.21;92723.13;2051760;70;20489;-84
2023/06/20 10:11:01;;;;;;;;;;;;;;;35.48;29.55;92719.81;2054950;70;20089;-83
2023/06/20 10:13:27;;;;;;;;;;;;;;;35.78;29.11;92718.75;2054933;69;20051;-82
2023/06/20 10:15:52;;;;;;;;;;;;;;;35.19;28.38;92709.00;2051573;70;20055;-83
2023/06/20 10:18:19;;;;;;;;;;;;;;;36.19;28.12;92707.84;2054870;69;20430;-84
2023/06/20 10:20:44;;;;;;;;;;;;;;;36.77;26.83;92704.97;2054778;70;20042;-82
2023/06/20 10:23:10;;;;;;;;;;;;;;;37.17;26.29;92692.47;2054861;70;20097;-83
2023/06/20 10:25:58;;;;;;;;;;;;;;;37.34;25.68;92687.34;2051611;70;20438;-83
2023/06/20 10:28:24;;;;;;;;;;;;;;;37.39;25.36;92682.78;2054164;70;20086;-85
2023/06/20 10:30:49;;;;;;;;;;;;;;;38.48;24.95;92676.63;2054175;70;20185;-83
2023/06/20 10:33:17;;;;;;;;;;;;;;;39.17;24.52;92677.84;2055643;70;20050;-86
2023/06/20 10:35:49;;;;;;;;;;;;;;;38.49;24.59;92671.44;2055567;70;20382;-86
2023/06/20 10:38:16;;;;;;;;;;;;;;;38.85;22.49;92669.75;2057695;70;20149;-83
2023/06/20 10:40:48;;;;;;;;;;;;;;;39.77;22.71;92673.47;2051446;70;20194;-82
2023/06/20 10:43:22;;;;;;;;;;;;;;;40.56;20.90;92678.22;2048764;70;20050;-83
2023/06/20 10:45:57;;;;;;;;;;;;;;;41.50;19.65;92676.00;2052833;70;20116;-81
2023/06/20 10:48:23;;;;;;;;;;;;;;;43.66;18.29;92667.25;2052416;69;20057;-82
2023/06/20 10:50:48;;;;;;;;;;;;;;;44.98;18.38;92663.44;2051881;70;20042;-82
2023/06/20 10:53:14;;;;;;;;;;;;;;;43.33;18.55;92658.22;2052092;70;20051;-81
2023/06/20 10:55:40;;;;;;;;;;;;;;;45.10;18.55;92654.38;2051886;70;20063;-83
2023/06/20 10:58:08;;;;;;;;;;;;;;;45.21;17.83;92651.38;2053896;70;20493;-83
2023/06/20 11:00:33;;;;;;;;;;;;;;;45.81;17.82;92651.44;2052012;70;20506;-83
2023/06/20 11:02:58;;;;;;;;;;;;;;;45.13;16.99;92646.75;2057842;69;20520;-81
2023/06/20 11:05:26;;;;;;;;;;;;;;;45.86;16.72;92643.63;2058462;69;20107;-82
2023/06/20 11:08:01;;;;;;;;;;;;;;;47.23;16.17;92641.25;2058553;69;20068;-83
2023/06/20 11:10:28;;;;;;;;;;;;;;;48.17;15.66;92634.25;2057988;69;20524;-83
2023/06/20 11:12:54;;;;;;;;;;;;;;;46.40;16.33;92628.41;2055082;69;20085;-83
2023/06/20 11:15:20;;;;;;;;;;;;;;;47.98;16.00;92620.16;2055279;70;20498;-84
2023/06/20 11:17:45;;;;;;;;;;;;;;;47.42;15.37;92620.31;2054684;70;20475;-83
2023/06/20 11:20:11;;;;;;;;;;;;;;;47.09;16.63;92610.31;2054991;69;20062;-83
2023/06/20 11:22:37;;;;;;;;;;;;;;;47.65;16.35;92607.25;2055348;70;20405;-83
2023/06/20 11:25:03;;;;;;;;;;;;;;;47.69;15.87;92606.22;2055307;70;20542;-83
2023/06/20 11:27:29;;;;;;;;;;;;;;;46.97;15.11;92605.34;2054892;69;20062;-83
2023/06/20 11:29:54;;;;;;;;;;;;;;;47.91;14.78;92597.69;2055377;70;20557;-82
2023/06/20 11:32:20;;;;;;;;;;;;;;;46.75;14.93;92592.94;2055395;70;20161;-81
2023/06/20 11:35:06;;;;;;;;;;;;;;;48.00;16.31;92592.44;2055029;70;20058;-81
2023/06/20 11:37:31;;;;;;;;;;;;;;;48.81;15.67;92600.38;2055325;70;20582;-83
2023/06/20 11:39:57;;;;;;;;;;;;;;;47.59;15.59;92584.59;2055593;70;20085;-82
2023/06/20 11:42:23;;;;;;;;;;;;;;;46.80;16.58;92585.09;2056326;69;20110;-84
2023/06/20 11:44:48;;;;;;;;;;;;;;;49.28;15.44;92593.25;2058477;69;20086;-82
2023/06/20 11:47:14;;;;;;;;;;;;;;;48.41;16.01;92586.00;2058359;69;20395;-82
2023/06/20 11:49:41;;;;;;;;;;;;;;;48.80;16.05;92589.31;2058312;69;20054;-82
2023/06/20 11:52:08;;;;;;;;;;;;;;;49.69;14.92;92577.59;2058552;69;20514;-83
2023/06/20 11:54:46;;;;;;;;;;;;;;;49.75;14.90;92571.03;2058507;69;20057;-82
2023/06/20 11:57:20;;;;;;;;;;;;;;;48.65;14.95;92568.94;2055112;69;20417;-81
2023/06/20 11:59:46;;;;;;;;;;;;;;;48.86;15.02;92564.88;2057841;69;20456;-82
2023/06/20 12:02:12;;;;;;;;;;;;;;;49.05;14.94;92564.66;2054940;70;20055;-81
2023/06/20 12:04:42;;;;;;;;;;;;;;;47.17;15.84;92561.31;2051694;70;20139;-81
2023/06/20 12:07:08;;;;;;;;;;;;;;;45.86;16.62;92557.38;2055111;70;20047;-82
2023/06/20 12:09:37;;;;;;;;;;;;;;;43.78;18.25;92536.75;2055126;70;20505;-82
2023/06/20 12:12:03;;;;;;;;;;;;;;;43.71;18.56;92532.06;2051933;70;20050;-82
2023/06/20 12:14:28;;;;;;;;;;;;;;;42.39;19.87;92521.44;2055139;70;20063;-81
2023/06/20 12:16:54;;;;;;;;;;;;;;;43.13;19.30;92532.94;2055105;69;20177;-83
2023/06/20 12:19:19;;;;;;;;;;;;;;;43.86;18.52;92529.56;2054847;69;20236;-82
2023/06/20 12:21:45;;;;;;;;;;;;;;;42.02;20.11;92517.09;2051793;70;20430;-82
2023/06/20 12:24:11;;;;;;;;;;;;;;;41.50;21.92;92513.53;2055000;70;20421;-82
2023/06/20 12:26:37;;;;;;;;;;;;;;;41.45;20.68;92508.72;2055059;70;20161;-82
2023/06/20 12:29:03;;;;;;;;;;;;;;;40.90;20.75;92509.66;2054949;69;20058;-82
2023/06/20 12:31:28;;;;;;;;;;;;;;;40.49;21.62;92503.09;2057091;69;20142;-83
2023/06/20 12:33:54;;;;;;;;;;;;;;;40.70;20.58;92502.69;2051701;70;20069;-82
2023/06/20 12:36:20;;;;;;;;;;;;;;;40.83;21.28;92502.69;2055144;70;20070;-82
2023/06/20 12:38:45;;;;;;;;;;;;;;;40.42;21.74;92496.13;2055036;70;20086;-81
2023/06/20 12:41:11;;;;;;;;;;;;;;;40.17;20.83;92505.59;2055095;69;20057;-81
2023/06/20 12:43:36;;;;;;;;;;;;;;;39.52;21.78;92500.22;2049041;70;20394;-81
2023/06/20 12:46:02;;;;;;;;;;;;;;;39.55;21.24;92498.59;2054934;70;20051;-82
2023/06/20 12:48:28;;;;;;;;;;;;;;;38.62;21.37;92484.09;2054860;70;20057;-82
2023/06/20 12:50:53;;;;;;;;;;;;;;;39.18;21.17;92491.63;2057622;69;20085;-82
2023/06/20 12:53:19;;;;;;;;;;;;;;;39.41;21.42;92481.66;2058566;69;20066;-82